Stafford, Connecticut
Current Conditions -  °F | °C
As of 11:52 PM on Saturday 20 Dec 2014 (Local Time) from KIJD Reporting Station
Overcast Overcast  
Wind Chill: 29°   Ceiling: 2500
Heat Index: 33°   Visibility: 10mi
Dew Point: 27°   Wind: 5mph
Humidity: 78%   Direction: 20°NNE
Pressure: 30.27"   Gusts: NA
Location:  41.98°N, 72.29°W
Report Text: KIJD 210452Z AUTO 02004KT 10SM SCT015 OVC025 01/M03 A3027 RMK AO2 SLP251 T00061028 400171056
Loading
Personal Weather Stations






























Interactive Weather Map New forecast layout! Learn more

10-Day Weather Forecast

Advertisements
Track Severe Weather on mobile